sensor_id;sensor_type;location;lat;lon;timestamp;P1;durP1;ratioP1;P2;durP2;ratioP2
31284;SDS011;56605;51.516;6.742;2022-09-17T00:01:15;11.65;;;2.17;;
31284;SDS011;56605;51.516;6.742;2022-09-17T00:03:41;5.53;;;1.40;;
31284;SDS011;56605;51.516;6.742;2022-09-17T00:06:07;4.68;;;1.30;;
31284;SDS011;56605;51.516;6.742;2022-09-17T00:08:33;4.72;;;1.13;;
31284;SDS011;56605;51.516;6.742;2022-09-17T00:11:04;7.72;;;1.55;;
31284;SDS011;56605;51.516;6.742;2022-09-17T00:13:29;8.73;;;1.42;;
31284;SDS011;56605;51.516;6.742;2022-09-17T00:15:54;8.70;;;2.13;;
31284;SDS011;56605;51.516;6.742;2022-09-17T00:18:20;8.80;;;1.67;;
31284;SDS011;56605;51.516;6.742;2022-09-17T00:20:45;7.90;;;1.55;;
31284;SDS011;56605;51.516;6.742;2022-09-17T00:23:11;8.27;;;2.40;;
31284;SDS011;56605;51.516;6.742;2022-09-17T00:25:37;7.22;;;1.90;;
31284;SDS011;56605;51.516;6.742;2022-09-17T00:28:02;9.82;;;2.35;;
31284;SDS011;56605;51.516;6.742;2022-09-17T00:30:28;7.25;;;1.90;;
31284;SDS011;56605;51.516;6.742;2022-09-17T00:32:53;9.80;;;1.90;;
31284;SDS011;56605;51.516;6.742;2022-09-17T00:35:21;7.88;;;1.58;;
31284;SDS011;56605;51.516;6.742;2022-09-17T00:37:47;10.13;;;1.95;;
31284;SDS011;56605;51.516;6.742;2022-09-17T00:40:12;14.03;;;1.73;;
31284;SDS011;56605;51.516;6.742;2022-09-17T00:42:37;10.95;;;2.00;;
31284;SDS011;56605;51.516;6.742;2022-09-17T00:45:02;8.13;;;1.90;;
31284;SDS011;56605;51.516;6.742;2022-09-17T00:47:35;8.38;;;1.77;;
31284;SDS011;56605;51.516;6.742;2022-09-17T00:50:03;9.10;;;2.05;;
31284;SDS011;56605;51.516;6.742;2022-09-17T00:52:37;12.20;;;2.03;;
31284;SDS011;56605;51.516;6.742;2022-09-17T00:57:32;12.10;;;1.67;;
31284;SDS011;56605;51.516;6.742;2022-09-17T00:59:57;9.18;;;2.00;;
31284;SDS011;56605;51.516;6.742;2022-09-17T01:02:22;6.10;;;1.50;;
31284;SDS011;56605;51.516;6.742;2022-09-17T01:04:48;11.80;;;2.22;;
31284;SDS011;56605;51.516;6.742;2022-09-17T01:07:37;7.72;;;1.58;;
31284;SDS011;56605;51.516;6.742;2022-09-17T01:10:14;15.95;;;2.30;;
31284;SDS011;56605;51.516;6.742;2022-09-17T01:15:25;9.88;;;1.90;;
31284;SDS011;56605;51.516;6.742;2022-09-17T01:38:32;8.45;;;1.80;;
31284;SDS011;56605;51.516;6.742;2022-09-17T01:41:08;7.25;;;2.00;;
31284;SDS011;56605;51.516;6.742;2022-09-17T01:46:13;9.80;;;2.20;;
31284;SDS011;56605;51.516;6.742;2022-09-17T01:48:41;11.32;;;2.20;;
31284;SDS011;56605;51.516;6.742;2022-09-17T01:51:13;11.25;;;1.95;;
31284;SDS011;56605;51.516;6.742;2022-09-17T01:53:42;3.72;;;1.52;;
31284;SDS011;56605;51.516;6.742;2022-09-17T01:56:09;10.48;;;2.17;;
31284;SDS011;56605;51.516;6.742;2022-09-17T01:58:39;9.43;;;2.13;;
31284;SDS011;56605;51.516;6.742;2022-09-17T02:01:06;12.43;;;2.17;;
31284;SDS011;56605;51.516;6.742;2022-09-17T02:03:42;10.27;;;2.08;;
31284;SDS011;56605;51.516;6.742;2022-09-17T02:06:11;8.98;;;1.45;;
31284;SDS011;56605;51.516;6.742;2022-09-17T02:08:40;12.73;;;1.88;;
31284;SDS011;56605;51.516;6.742;2022-09-17T02:11:08;10.90;;;1.70;;
31284;SDS011;56605;51.516;6.742;2022-09-17T02:13:36;9.77;;;2.38;;
31284;SDS011;56605;51.516;6.742;2022-09-17T02:16:25;9.80;;;2.13;;
31284;SDS011;56605;51.516;6.742;2022-09-17T02:18:50;12.73;;;1.65;;
31284;SDS011;56605;51.516;6.742;2022-09-17T02:21:39;6.60;;;1.48;;
31284;SDS011;56605;51.516;6.742;2022-09-17T02:24:09;10.30;;;1.80;;
31284;SDS011;56605;51.516;6.742;2022-09-17T02:26:36;6.82;;;1.50;;
31284;SDS011;56605;51.516;6.742;2022-09-17T02:29:07;8.77;;;1.58;;
31284;SDS011;56605;51.516;6.742;2022-09-17T02:31:33;8.35;;;1.67;;
31284;SDS011;56605;51.516;6.742;2022-09-17T02:33:59;4.95;;;2.15;;
31284;SDS011;56605;51.516;6.742;2022-09-17T02:36:26;10.85;;;2.28;;
31284;SDS011;56605;51.516;6.742;2022-09-17T02:38:56;6.20;;;1.55;;
31284;SDS011;56605;51.516;6.742;2022-09-17T02:41:22;10.77;;;1.50;;
31284;SDS011;56605;51.516;6.742;2022-09-17T03:00:20;9.55;;;1.52;;
31284;SDS011;56605;51.516;6.742;2022-09-17T03:02:18;15.43;;;2.28;;
31284;SDS011;56605;51.516;6.742;2022-09-17T03:04:46;9.30;;;1.90;;
31284;SDS011;56605;51.516;6.742;2022-09-17T03:07:12;11.90;;;1.67;;
31284;SDS011;56605;51.516;6.742;2022-09-17T03:09:38;5.18;;;1.45;;
31284;SDS011;56605;51.516;6.742;2022-09-17T03:12:03;11.13;;;1.92;;
31284;SDS011;56605;51.516;6.742;2022-09-17T03:14:29;6.88;;;1.67;;
31284;SDS011;56605;51.516;6.742;2022-09-17T03:16:54;10.70;;;1.35;;
31284;SDS011;56605;51.516;6.742;2022-09-17T03:19:19;11.43;;;1.55;;
31284;SDS011;56605;51.516;6.742;2022-09-17T03:21:45;4.60;;;1.03;;
31284;SDS011;56605;51.516;6.742;2022-09-17T03:24:10;9.32;;;2.03;;
31284;SDS011;56605;51.516;6.742;2022-09-17T03:26:36;7.15;;;1.38;;
31284;SDS011;56605;51.516;6.742;2022-09-17T03:29:01;7.50;;;1.80;;
31284;SDS011;56605;51.516;6.742;2022-09-17T03:31:26;6.83;;;1.27;;
31284;SDS011;56605;51.516;6.742;2022-09-17T03:33:53;11.48;;;1.48;;
31284;SDS011;56605;51.516;6.742;2022-09-17T03:36:18;10.55;;;1.45;;
31284;SDS011;56605;51.516;6.742;2022-09-17T03:38:43;14.20;;;1.23;;
31284;SDS011;56605;51.516;6.742;2022-09-17T03:41:08;6.03;;;1.13;;
31284;SDS011;56605;51.516;6.742;2022-09-17T03:43:33;5.03;;;0.80;;
31284;SDS011;56605;51.516;6.742;2022-09-17T03:45:59;10.13;;;1.13;;
31284;SDS011;56605;51.516;6.742;2022-09-17T03:48:24;7.07;;;1.30;;
31284;SDS011;56605;51.516;6.742;2022-09-17T03:50:49;4.53;;;1.10;;
31284;SDS011;56605;51.516;6.742;2022-09-17T03:53:15;6.90;;;1.23;;
31284;SDS011;56605;51.516;6.742;2022-09-17T03:55:40;9.00;;;2.17;;
31284;SDS011;56605;51.516;6.742;2022-09-17T03:58:05;5.35;;;1.65;;
31284;SDS011;56605;51.516;6.742;2022-09-17T04:00:31;10.90;;;1.58;;
31284;SDS011;56605;51.516;6.742;2022-09-17T04:02:56;13.32;;;1.38;;
31284;SDS011;56605;51.516;6.742;2022-09-17T04:05:21;9.40;;;1.90;;
31284;SDS011;56605;51.516;6.742;2022-09-17T04:07:47;6.88;;;1.45;;
31284;SDS011;56605;51.516;6.742;2022-09-17T04:10:12;4.25;;;1.40;;
31284;SDS011;56605;51.516;6.742;2022-09-17T04:12:38;7.13;;;1.38;;
31284;SDS011;56605;51.516;6.742;2022-09-17T04:15:03;7.30;;;1.20;;
31284;SDS011;56605;51.516;6.742;2022-09-17T04:17:28;7.18;;;1.35;;
31284;SDS011;56605;51.516;6.742;2022-09-17T04:19:53;6.32;;;1.42;;
31284;SDS011;56605;51.516;6.742;2022-09-17T04:22:19;9.65;;;1.55;;
31284;SDS011;56605;51.516;6.742;2022-09-17T04:24:44;6.75;;;1.35;;
31284;SDS011;56605;51.516;6.742;2022-09-17T04:27:10;8.40;;;1.40;;
31284;SDS011;56605;51.516;6.742;2022-09-17T04:29:35;10.63;;;1.60;;
31284;SDS011;56605;51.516;6.742;2022-09-17T04:32:00;8.05;;;1.65;;
31284;SDS011;56605;51.516;6.742;2022-09-17T04:34:25;7.07;;;1.45;;
31284;SDS011;56605;51.516;6.742;2022-09-17T04:36:50;9.15;;;2.05;;
31284;SDS011;56605;51.516;6.742;2022-09-17T04:39:16;5.80;;;1.37;;
31284;SDS011;56605;51.516;6.742;2022-09-17T04:41:41;9.82;;;1.30;;
31284;SDS011;56605;51.516;6.742;2022-09-17T04:44:06;7.18;;;2.08;;
31284;SDS011;56605;51.516;6.742;2022-09-17T04:46:31;8.47;;;1.33;;
31284;SDS011;56605;51.516;6.742;2022-09-17T04:48:56;8.48;;;1.52;;
31284;SDS011;56605;51.516;6.742;2022-09-17T04:51:22;6.00;;;1.50;;
31284;SDS011;56605;51.516;6.742;2022-09-17T04:53:47;7.90;;;1.30;;
31284;SDS011;56605;51.516;6.742;2022-09-17T04:56:12;6.60;;;1.63;;
31284;SDS011;56605;51.516;6.742;2022-09-17T04:58:38;4.13;;;1.40;;
31284;SDS011;56605;51.516;6.742;2022-09-17T05:01:03;17.17;;;2.40;;
31284;SDS011;56605;51.516;6.742;2022-09-17T05:03:28;10.68;;;1.60;;
31284;SDS011;56605;51.516;6.742;2022-09-17T05:05:53;7.13;;;1.48;;
31284;SDS011;56605;51.516;6.742;2022-09-17T05:08:18;11.35;;;1.73;;
31284;SDS011;56605;51.516;6.742;2022-09-17T05:10:44;12.55;;;1.48;;
31284;SDS011;56605;51.516;6.742;2022-09-17T05:13:09;6.40;;;1.48;;
31284;SDS011;56605;51.516;6.742;2022-09-17T05:15:34;7.88;;;1.80;;
31284;SDS011;56605;51.516;6.742;2022-09-17T05:17:59;10.70;;;1.90;;
31284;SDS011;56605;51.516;6.742;2022-09-17T05:20:24;11.52;;;1.40;;
31284;SDS011;56605;51.516;6.742;2022-09-17T05:22:50;5.93;;;1.52;;
31284;SDS011;56605;51.516;6.742;2022-09-17T05:25:16;16.80;;;2.00;;
31284;SDS011;56605;51.516;6.742;2022-09-17T05:27:41;10.13;;;1.88;;
31284;SDS011;56605;51.516;6.742;2022-09-17T05:30:07;9.90;;;2.30;;
31284;SDS011;56605;51.516;6.742;2022-09-17T05:32:33;12.40;;;1.40;;
31284;SDS011;56605;51.516;6.742;2022-09-17T05:34:58;8.63;;;2.20;;
31284;SDS011;56605;51.516;6.742;2022-09-17T05:37:23;8.53;;;1.57;;
31284;SDS011;56605;51.516;6.742;2022-09-17T05:39:48;6.63;;;1.15;;
31284;SDS011;56605;51.516;6.742;2022-09-17T05:42:13;5.60;;;1.38;;
31284;SDS011;56605;51.516;6.742;2022-09-17T05:44:39;13.70;;;1.58;;
31284;SDS011;56605;51.516;6.742;2022-09-17T05:47:04;13.35;;;1.58;;
31284;SDS011;56605;51.516;6.742;2022-09-17T05:49:29;8.27;;;1.60;;
31284;SDS011;56605;51.516;6.742;2022-09-17T05:51:54;19.25;;;1.85;;
31284;SDS011;56605;51.516;6.742;2022-09-17T05:54:19;13.63;;;1.70;;
31284;SDS011;56605;51.516;6.742;2022-09-17T05:56:45;4.27;;;1.00;;
31284;SDS011;56605;51.516;6.742;2022-09-17T05:59:10;9.18;;;1.58;;
31284;SDS011;56605;51.516;6.742;2022-09-17T06:01:36;11.32;;;1.60;;
31284;SDS011;56605;51.516;6.742;2022-09-17T06:04:01;6.13;;;1.00;;
31284;SDS011;56605;51.516;6.742;2022-09-17T06:06:28;5.53;;;1.20;;
31284;SDS011;56605;51.516;6.742;2022-09-17T06:08:54;9.57;;;1.50;;
31284;SDS011;56605;51.516;6.742;2022-09-17T06:11:20;10.87;;;1.63;;
31284;SDS011;56605;51.516;6.742;2022-09-17T06:13:45;5.30;;;1.48;;
31284;SDS011;56605;51.516;6.742;2022-09-17T06:16:10;9.65;;;1.35;;
31284;SDS011;56605;51.516;6.742;2022-09-17T06:18:35;6.72;;;1.73;;
31284;SDS011;56605;51.516;6.742;2022-09-17T06:21:01;5.35;;;1.23;;
31284;SDS011;56605;51.516;6.742;2022-09-17T06:23:30;10.38;;;1.30;;
31284;SDS011;56605;51.516;6.742;2022-09-17T06:25:57;6.75;;;1.50;;
31284;SDS011;56605;51.516;6.742;2022-09-17T06:28:23;9.30;;;1.45;;
31284;SDS011;56605;51.516;6.742;2022-09-17T06:30:49;9.40;;;1.60;;
31284;SDS011;56605;51.516;6.742;2022-09-17T06:33:18;8.65;;;1.38;;
31284;SDS011;56605;51.516;6.742;2022-09-17T06:35:43;8.30;;;1.05;;
31284;SDS011;56605;51.516;6.742;2022-09-17T06:38:08;9.23;;;1.38;;
31284;SDS011;56605;51.516;6.742;2022-09-17T06:40:34;10.63;;;1.60;;
31284;SDS011;56605;51.516;6.742;2022-09-17T06:42:59;8.67;;;1.90;;
31284;SDS011;56605;51.516;6.742;2022-09-17T06:45:24;9.35;;;2.00;;
31284;SDS011;56605;51.516;6.742;2022-09-17T06:47:50;7.65;;;2.13;;
31284;SDS011;56605;51.516;6.742;2022-09-17T06:50:15;10.70;;;1.45;;
31284;SDS011;56605;51.516;6.742;2022-09-17T06:52:51;5.53;;;1.35;;
31284;SDS011;56605;51.516;6.742;2022-09-17T06:55:16;8.77;;;2.13;;
31284;SDS011;56605;51.516;6.742;2022-09-17T06:57:41;8.45;;;1.50;;
31284;SDS011;56605;51.516;6.742;2022-09-17T07:00:07;8.70;;;1.25;;
31284;SDS011;56605;51.516;6.742;2022-09-17T07:02:33;7.57;;;1.35;;
31284;SDS011;56605;51.516;6.742;2022-09-17T07:04:58;6.63;;;1.05;;
31284;SDS011;56605;51.516;6.742;2022-09-17T07:07:23;6.30;;;1.60;;
31284;SDS011;56605;51.516;6.742;2022-09-17T07:09:48;6.15;;;1.27;;
31284;SDS011;56605;51.516;6.742;2022-09-17T07:12:13;7.82;;;1.73;;
31284;SDS011;56605;51.516;6.742;2022-09-17T07:14:39;5.20;;;1.47;;
31284;SDS011;56605;51.516;6.742;2022-09-17T07:17:04;5.10;;;1.87;;
31284;SDS011;56605;51.516;6.742;2022-09-17T07:19:29;6.35;;;1.23;;
31284;SDS011;56605;51.516;6.742;2022-09-17T07:21:54;8.75;;;1.80;;
31284;SDS011;56605;51.516;6.742;2022-09-17T07:24:19;6.90;;;1.23;;
31284;SDS011;56605;51.516;6.742;2022-09-17T07:26:45;9.85;;;1.25;;
31284;SDS011;56605;51.516;6.742;2022-09-17T07:29:10;6.27;;;1.10;;
31284;SDS011;56605;51.516;6.742;2022-09-17T07:31:36;3.90;;;1.02;;
31284;SDS011;56605;51.516;6.742;2022-09-17T07:34:01;4.88;;;1.08;;
31284;SDS011;56605;51.516;6.742;2022-09-17T07:36:27;4.43;;;0.82;;
31284;SDS011;56605;51.516;6.742;2022-09-17T07:38:52;5.40;;;1.10;;
31284;SDS011;56605;51.516;6.742;2022-09-17T07:41:17;6.13;;;1.63;;
31284;SDS011;56605;51.516;6.742;2022-09-17T07:43:42;3.92;;;0.98;;
31284;SDS011;56605;51.516;6.742;2022-09-17T07:46:11;3.88;;;1.10;;
31284;SDS011;56605;51.516;6.742;2022-09-17T07:48:37;7.53;;;1.40;;
31284;SDS011;56605;51.516;6.742;2022-09-17T07:51:02;4.85;;;1.38;;
31284;SDS011;56605;51.516;6.742;2022-09-17T07:53:28;10.35;;;1.25;;
31284;SDS011;56605;51.516;6.742;2022-09-17T07:55:57;6.13;;;1.00;;
31284;SDS011;56605;51.516;6.742;2022-09-17T07:58:22;6.00;;;1.02;;
31284;SDS011;56605;51.516;6.742;2022-09-17T08:00:48;7.95;;;1.08;;
31284;SDS011;56605;51.516;6.742;2022-09-17T08:03:13;8.57;;;1.40;;
31284;SDS011;56605;51.516;6.742;2022-09-17T08:05:39;6.30;;;1.23;;
31284;SDS011;56605;51.516;6.742;2022-09-17T08:08:04;7.72;;;1.00;;
31284;SDS011;56605;51.516;6.742;2022-09-17T08:10:30;8.75;;;1.60;;
31284;SDS011;56605;51.516;6.742;2022-09-17T08:12:56;6.15;;;1.00;;
31284;SDS011;56605;51.516;6.742;2022-09-17T08:15:21;12.98;;;1.30;;
31284;SDS011;56605;51.516;6.742;2022-09-17T08:17:46;7.03;;;1.38;;
31284;SDS011;56605;51.516;6.742;2022-09-17T08:20:12;7.47;;;1.27;;
31284;SDS011;56605;51.516;6.742;2022-09-17T08:22:38;4.53;;;1.20;;
31284;SDS011;56605;51.516;6.742;2022-09-17T08:25:04;8.73;;;1.42;;
31284;SDS011;56605;51.516;6.742;2022-09-17T08:27:29;9.18;;;2.03;;
31284;SDS011;56605;51.516;6.742;2022-09-17T08:29:55;6.22;;;1.15;;
31284;SDS011;56605;51.516;6.742;2022-09-17T08:32:20;6.13;;;0.88;;
31284;SDS011;56605;51.516;6.742;2022-09-17T08:34:45;10.40;;;0.97;;
31284;SDS011;56605;51.516;6.742;2022-09-17T08:37:10;10.10;;;1.58;;
31284;SDS011;56605;51.516;6.742;2022-09-17T08:39:35;3.93;;;0.67;;
31284;SDS011;56605;51.516;6.742;2022-09-17T08:42:04;4.50;;;1.03;;
31284;SDS011;56605;51.516;6.742;2022-09-17T08:44:41;5.78;;;0.90;;
31284;SDS011;56605;51.516;6.742;2022-09-17T08:47:21;2.70;;;0.55;;
31284;SDS011;56605;51.516;6.742;2022-09-17T08:49:49;4.55;;;0.52;;
31284;SDS011;56605;51.516;6.742;2022-09-17T08:54:44;3.42;;;1.10;;
31284;SDS011;56605;51.516;6.742;2022-09-17T08:59:40;1.80;;;0.70;;
31284;SDS011;56605;51.516;6.742;2022-09-17T09:02:53;3.85;;;0.93;;
31284;SDS011;56605;51.516;6.742;2022-09-17T09:04:57;6.10;;;1.02;;
31284;SDS011;56605;51.516;6.742;2022-09-17T09:07:25;5.53;;;0.88;;
31284;SDS011;56605;51.516;6.742;2022-09-17T09:10:06;2.25;;;0.30;;
31284;SDS011;56605;51.516;6.742;2022-09-17T09:12:34;2.58;;;0.80;;
31284;SDS011;56605;51.516;6.742;2022-09-17T09:15:05;4.85;;;0.60;;
31284;SDS011;56605;51.516;6.742;2022-09-17T09:17:33;3.75;;;0.40;;
31284;SDS011;56605;51.516;6.742;2022-09-17T09:20:00;6.05;;;0.95;;
31284;SDS011;56605;51.516;6.742;2022-09-17T09:27:26;7.30;;;0.80;;
31284;SDS011;56605;51.516;6.742;2022-09-17T09:29:56;6.15;;;0.77;;
31284;SDS011;56605;51.516;6.742;2022-09-17T09:34:57;4.90;;;0.75;;
31284;SDS011;56605;51.516;6.742;2022-09-17T09:37:26;6.53;;;0.65;;
31284;SDS011;56605;51.516;6.742;2022-09-17T09:39:55;4.35;;;0.73;;
31284;SDS011;56605;51.516;6.742;2022-09-17T09:42:30;7.32;;;0.75;;
31284;SDS011;56605;51.516;6.742;2022-09-17T09:44:57;7.05;;;0.98;;
31284;SDS011;56605;51.516;6.742;2022-09-17T09:57:43;7.87;;;2.20;;
31284;SDS011;56605;51.516;6.742;2022-09-17T10:02:45;6.47;;;1.10;;
31284;SDS011;56605;51.516;6.742;2022-09-17T10:05:11;4.00;;;0.90;;
31284;SDS011;56605;51.516;6.742;2022-09-17T10:07:42;4.40;;;0.70;;
31284;SDS011;56605;51.516;6.742;2022-09-17T10:10:09;5.47;;;1.20;;
31284;SDS011;56605;51.516;6.742;2022-09-17T10:12:34;10.05;;;1.05;;
31284;SDS011;56605;51.516;6.742;2022-09-17T10:15:00;8.48;;;1.58;;
31284;SDS011;56605;51.516;6.742;2022-09-17T10:17:42;2.08;;;0.70;;
31284;SDS011;56605;51.516;6.742;2022-09-17T10:20:16;4.68;;;0.90;;
31284;SDS011;56605;51.516;6.742;2022-09-17T10:22:42;3.47;;;1.30;;
31284;SDS011;56605;51.516;6.742;2022-09-17T10:25:19;7.00;;;0.93;;
31284;SDS011;56605;51.516;6.742;2022-09-17T10:27:46;4.18;;;0.70;;
31284;SDS011;56605;51.516;6.742;2022-09-17T10:32:37;2.22;;;0.77;;
31284;SDS011;56605;51.516;6.742;2022-09-17T10:37:49;4.53;;;0.60;;
31284;SDS011;56605;51.516;6.742;2022-09-17T10:42:44;4.28;;;0.70;;
31284;SDS011;56605;51.516;6.742;2022-09-17T10:45:22;3.15;;;0.65;;
31284;SDS011;56605;51.516;6.742;2022-09-17T10:47:47;11.52;;;0.95;;
31284;SDS011;56605;51.516;6.742;2022-09-17T10:50:16;6.38;;;0.68;;
31284;SDS011;56605;51.516;6.742;2022-09-17T10:52:51;2.13;;;0.50;;
31284;SDS011;56605;51.516;6.742;2022-09-17T10:57:56;0.80;;;0.32;;
31284;SDS011;56605;51.516;6.742;2022-09-17T11:00:24;1.70;;;0.32;;
31284;SDS011;56605;51.516;6.742;2022-09-17T11:05:39;3.50;;;1.02;;
31284;SDS011;56605;51.516;6.742;2022-09-17T11:13:38;3.50;;;1.52;;
31284;SDS011;56605;51.516;6.742;2022-09-17T11:23:52;1.15;;;0.30;;
31284;SDS011;56605;51.516;6.742;2022-09-17T11:31:54;0.63;;;0.35;;
31284;SDS011;56605;51.516;6.742;2022-09-17T11:34:41;2.45;;;0.30;;
31284;SDS011;56605;51.516;6.742;2022-09-17T11:37:16;1.00;;;0.43;;
31284;SDS011;56605;51.516;6.742;2022-09-17T11:42:12;0.55;;;0.30;;
31284;SDS011;56605;51.516;6.742;2022-09-17T11:44:51;7.93;;;1.85;;
31284;SDS011;56605;51.516;6.742;2022-09-17T11:47:20;1.58;;;0.65;;
31284;SDS011;56605;51.516;6.742;2022-09-17T11:49:59;2.78;;;0.43;;
31284;SDS011;56605;51.516;6.742;2022-09-17T11:52:35;4.13;;;0.30;;
31284;SDS011;56605;51.516;6.742;2022-09-17T11:57:30;1.75;;;0.28;;
31284;SDS011;56605;51.516;6.742;2022-09-17T12:00:05;1.60;;;0.32;;
31284;SDS011;56605;51.516;6.742;2022-09-17T12:05:04;2.58;;;0.65;;
31284;SDS011;56605;51.516;6.742;2022-09-17T12:15:30;3.67;;;0.30;;
31284;SDS011;56605;51.516;6.742;2022-09-17T12:20:26;6.07;;;0.83;;
31284;SDS011;56605;51.516;6.742;2022-09-17T12:22:51;2.58;;;0.63;;
31284;SDS011;56605;51.516;6.742;2022-09-17T12:25:18;2.70;;;0.45;;
31284;SDS011;56605;51.516;6.742;2022-09-17T12:27:53;0.80;;;0.30;;
31284;SDS011;56605;51.516;6.742;2022-09-17T12:30:23;4.15;;;0.40;;
31284;SDS011;56605;51.516;6.742;2022-09-17T12:33:07;2.78;;;0.40;;
31284;SDS011;56605;51.516;6.742;2022-09-17T12:41:02;0.88;;;0.57;;
31284;SDS011;56605;51.516;6.742;2022-09-17T12:54:00;0.57;;;0.30;;
31284;SDS011;56605;51.516;6.742;2022-09-17T12:56:38;3.63;;;0.52;;
31284;SDS011;56605;51.516;6.742;2022-09-17T12:59:08;1.63;;;0.40;;
31284;SDS011;56605;51.516;6.742;2022-09-17T13:01:37;3.97;;;0.80;;
31284;SDS011;56605;51.516;6.742;2022-09-17T13:12:06;1.38;;;0.70;;
31284;SDS011;56605;51.516;6.742;2022-09-17T13:14:40;1.80;;;0.65;;
31284;SDS011;56605;51.516;6.742;2022-09-17T13:17:17;5.75;;;0.82;;
31284;SDS011;56605;51.516;6.742;2022-09-17T13:20:09;2.47;;;0.90;;
31284;SDS011;56605;51.516;6.742;2022-09-17T13:22:41;3.25;;;0.80;;
31284;SDS011;56605;51.516;6.742;2022-09-17T13:25:10;3.38;;;0.90;;
31284;SDS011;56605;51.516;6.742;2022-09-17T13:27:37;7.20;;;3.08;;
31284;SDS011;56605;51.516;6.742;2022-09-17T13:30:13;4.47;;;0.77;;
31284;SDS011;56605;51.516;6.742;2022-09-17T13:37:30;7.00;;;1.83;;
31284;SDS011;56605;51.516;6.742;2022-09-17T13:39:55;2.70;;;0.90;;
31284;SDS011;56605;51.516;6.742;2022-09-17T13:45:05;6.53;;;1.17;;
31284;SDS011;56605;51.516;6.742;2022-09-17T13:47:31;2.28;;;0.90;;
31284;SDS011;56605;51.516;6.742;2022-09-17T13:49:58;6.03;;;1.33;;
31284;SDS011;56605;51.516;6.742;2022-09-17T13:52:31;7.22;;;1.02;;
31284;SDS011;56605;51.516;6.742;2022-09-17T13:54:57;1.20;;;0.73;;
31284;SDS011;56605;51.516;6.742;2022-09-17T13:57:23;2.47;;;0.68;;
31284;SDS011;56605;51.516;6.742;2022-09-17T13:59:56;4.70;;;0.70;;
31284;SDS011;56605;51.516;6.742;2022-09-17T14:04:53;3.08;;;1.00;;
31284;SDS011;56605;51.516;6.742;2022-09-17T14:09:53;9.27;;;1.90;;
31284;SDS011;56605;51.516;6.742;2022-09-17T14:17:56;5.90;;;0.73;;
31284;SDS011;56605;51.516;6.742;2022-09-17T14:20:22;5.10;;;0.82;;
31284;SDS011;56605;51.516;6.742;2022-09-17T14:22:58;4.72;;;0.77;;
31284;SDS011;56605;51.516;6.742;2022-09-17T14:28:24;3.20;;;0.82;;
31284;SDS011;56605;51.516;6.742;2022-09-17T14:30:53;6.10;;;0.88;;
31284;SDS011;56605;51.516;6.742;2022-09-17T14:33:21;3.13;;;0.55;;
31284;SDS011;56605;51.516;6.742;2022-09-17T14:35:51;4.70;;;0.65;;
31284;SDS011;56605;51.516;6.742;2022-09-17T14:38:53;2.90;;;0.60;;
31284;SDS011;56605;51.516;6.742;2022-09-17T14:46:16;1.90;;;0.60;;
31284;SDS011;56605;51.516;6.742;2022-09-17T14:48:42;3.80;;;0.82;;
31284;SDS011;56605;51.516;6.742;2022-09-17T14:53:42;5.03;;;1.33;;
31284;SDS011;56605;51.516;6.742;2022-09-17T14:56:08;8.35;;;2.35;;
31284;SDS011;56605;51.516;6.742;2022-09-17T14:58:36;4.63;;;1.23;;
31284;SDS011;56605;51.516;6.742;2022-09-17T15:01:02;6.28;;;1.35;;
31284;SDS011;56605;51.516;6.742;2022-09-17T15:03:27;5.18;;;0.93;;
31284;SDS011;56605;51.516;6.742;2022-09-17T15:05:52;7.33;;;0.80;;
31284;SDS011;56605;51.516;6.742;2022-09-17T15:08:22;4.07;;;0.65;;
31284;SDS011;56605;51.516;6.742;2022-09-17T15:10:54;4.15;;;0.68;;
31284;SDS011;56605;51.516;6.742;2022-09-17T15:13:25;1.95;;;0.50;;
31284;SDS011;56605;51.516;6.742;2022-09-17T15:18:24;1.95;;;0.55;;
31284;SDS011;56605;51.516;6.742;2022-09-17T15:20:53;3.65;;;0.77;;
31284;SDS011;56605;51.516;6.742;2022-09-17T15:23:22;6.50;;;1.50;;
31284;SDS011;56605;51.516;6.742;2022-09-17T15:25:51;2.83;;;1.08;;
31284;SDS011;56605;51.516;6.742;2022-09-17T15:28:38;3.08;;;0.85;;
31284;SDS011;56605;51.516;6.742;2022-09-17T15:31:05;6.38;;;1.23;;
31284;SDS011;56605;51.516;6.742;2022-09-17T15:33:35;3.72;;;0.80;;
31284;SDS011;56605;51.516;6.742;2022-09-17T15:36:01;2.33;;;0.88;;
31284;SDS011;56605;51.516;6.742;2022-09-17T15:38:31;5.13;;;1.85;;
31284;SDS011;56605;51.516;6.742;2022-09-17T15:41:11;5.68;;;1.35;;
31284;SDS011;56605;51.516;6.742;2022-09-17T15:43:37;2.10;;;0.50;;
31284;SDS011;56605;51.516;6.742;2022-09-17T15:48:46;3.53;;;0.68;;
31284;SDS011;56605;51.516;6.742;2022-09-17T15:51:26;6.78;;;2.10;;
31284;SDS011;56605;51.516;6.742;2022-09-17T15:53:53;2.50;;;0.77;;
31284;SDS011;56605;51.516;6.742;2022-09-17T15:56:21;4.90;;;1.20;;
31284;SDS011;56605;51.516;6.742;2022-09-17T16:08:45;4.25;;;1.10;;
31284;SDS011;56605;51.516;6.742;2022-09-17T16:11:11;2.08;;;0.45;;
31284;SDS011;56605;51.516;6.742;2022-09-17T16:13:37;1.75;;;0.30;;
31284;SDS011;56605;51.516;6.742;2022-09-17T16:16:02;2.57;;;1.00;;
31284;SDS011;56605;51.516;6.742;2022-09-17T16:18:27;5.80;;;0.90;;
31284;SDS011;56605;51.516;6.742;2022-09-17T16:20:53;2.20;;;0.45;;
31284;SDS011;56605;51.516;6.742;2022-09-17T16:23:18;4.07;;;0.70;;
31284;SDS011;56605;51.516;6.742;2022-09-17T16:25:43;2.25;;;0.73;;
31284;SDS011;56605;51.516;6.742;2022-09-17T16:28:09;4.15;;;0.63;;
31284;SDS011;56605;51.516;6.742;2022-09-17T16:30:36;1.42;;;0.52;;
31284;SDS011;56605;51.516;6.742;2022-09-17T16:33:04;4.43;;;0.65;;
31284;SDS011;56605;51.516;6.742;2022-09-17T16:35:31;7.00;;;0.88;;
31284;SDS011;56605;51.516;6.742;2022-09-17T16:37:56;2.70;;;0.70;;
31284;SDS011;56605;51.516;6.742;2022-09-17T16:40:22;3.63;;;1.27;;
31284;SDS011;56605;51.516;6.742;2022-09-17T16:42:48;8.07;;;1.67;;
31284;SDS011;56605;51.516;6.742;2022-09-17T16:45:13;6.18;;;1.83;;
31284;SDS011;56605;51.516;6.742;2022-09-17T16:47:39;8.10;;;0.85;;
31284;SDS011;56605;51.516;6.742;2022-09-17T16:50:06;5.10;;;0.70;;
31284;SDS011;56605;51.516;6.742;2022-09-17T16:52:31;4.88;;;0.90;;
31284;SDS011;56605;51.516;6.742;2022-09-17T16:54:57;4.90;;;1.40;;
31284;SDS011;56605;51.516;6.742;2022-09-17T16:57:22;6.30;;;3.22;;
31284;SDS011;56605;51.516;6.742;2022-09-17T16:59:47;11.40;;;3.15;;
31284;SDS011;56605;51.516;6.742;2022-09-17T17:02:12;12.77;;;3.83;;
31284;SDS011;56605;51.516;6.742;2022-09-17T17:04:37;15.07;;;5.30;;
31284;SDS011;56605;51.516;6.742;2022-09-17T17:07:03;13.38;;;5.95;;
31284;SDS011;56605;51.516;6.742;2022-09-17T17:09:28;7.50;;;3.65;;
31284;SDS011;56605;51.516;6.742;2022-09-17T17:11:53;13.80;;;1.90;;
31284;SDS011;56605;51.516;6.742;2022-09-17T17:14:18;6.53;;;1.30;;
31284;SDS011;56605;51.516;6.742;2022-09-17T17:16:44;9.35;;;2.05;;
31284;SDS011;56605;51.516;6.742;2022-09-17T17:19:09;8.65;;;1.88;;
31284;SDS011;56605;51.516;6.742;2022-09-17T17:21:34;7.95;;;1.85;;
31284;SDS011;56605;51.516;6.742;2022-09-17T17:24:00;8.30;;;1.20;;
31284;SDS011;56605;51.516;6.742;2022-09-17T17:26:25;4.82;;;0.93;;
31284;SDS011;56605;51.516;6.742;2022-09-17T17:28:50;6.47;;;1.80;;
31284;SDS011;56605;51.516;6.742;2022-09-17T17:31:15;5.47;;;1.30;;
31284;SDS011;56605;51.516;6.742;2022-09-17T17:33:41;4.10;;;1.13;;
31284;SDS011;56605;51.516;6.742;2022-09-17T17:36:06;4.60;;;1.02;;
31284;SDS011;56605;51.516;6.742;2022-09-17T17:38:31;3.40;;;1.45;;
31284;SDS011;56605;51.516;6.742;2022-09-17T17:41:01;5.93;;;1.48;;
31284;SDS011;56605;51.516;6.742;2022-09-17T17:43:26;8.95;;;2.58;;
31284;SDS011;56605;51.516;6.742;2022-09-17T17:45:51;8.80;;;2.05;;
31284;SDS011;56605;51.516;6.742;2022-09-17T17:48:17;9.90;;;1.80;;
31284;SDS011;56605;51.516;6.742;2022-09-17T17:50:42;10.90;;;1.40;;
31284;SDS011;56605;51.516;6.742;2022-09-17T17:53:07;6.30;;;1.60;;
31284;SDS011;56605;51.516;6.742;2022-09-17T17:55:32;7.03;;;1.80;;